Time;durP1;ratioP1;P1;durP2;ratioP2;P2;SDS_P1;SDS_P2;PMS_P1;PMS_P2;Temp;Humidity;BMP_temperature;BMP_pressure;BME280_temperature;BME280_humidity;BME280_pressure;Samples;Min_cycle;Max_cycle;Signal;HPM_P1;HPM_P2
2023/10/02 00:02:06;;;;;;;6.23;4.80;;;18.00;99.90;;;;;;5012726;28;20258;-70
2023/10/02 00:04:34;;;;;;;8.73;5.30;;;17.90;99.90;;;;;;5013452;28;20230;-71
2023/10/02 00:07:06;;;;;;;9.13;5.03;;;17.80;99.90;;;;;;5012880;28;20736;-69
2023/10/02 00:09:34;;;;;;;7.43;5.50;;;17.80;99.90;;;;;;5009733;28;20794;-71
2023/10/02 00:12:01;;;;;;;7.80;5.40;;;17.80;99.90;;;;;;5012932;28;20189;-72
2023/10/02 00:14:34;;;;;;;7.17;5.20;;;17.80;99.90;;;;;;5012636;28;20602;-71
2023/10/02 00:17:03;;;;;;;7.10;4.50;;;17.90;99.90;;;;;;5012039;28;20193;-71
2023/10/02 00:19:30;;;;;;;8.33;5.37;;;17.90;99.90;;;;;;5007801;28;20229;-72
2023/10/02 00:22:03;;;;;;;7.30;5.23;;;17.90;99.90;;;;;;5012732;28;20207;-73
2023/10/02 00:24:32;;;;;;;7.93;5.33;;;17.90;99.90;;;;;;5009341;28;20195;-73
2023/10/02 00:26:58;;;;;;;7.77;4.80;;;17.90;99.90;;;;;;5004369;28;20243;-73
2023/10/02 00:29:25;;;;;;;7.30;4.77;;;17.80;99.90;;;;;;5010983;28;20494;-73
2023/10/02 00:31:51;;;;;;;8.33;5.33;;;17.80;99.90;;;;;;5012553;28;20200;-72
2023/10/02 00:34:30;;;;;;;12.97;4.50;;;17.80;99.90;;;;;;5010840;28;20201;-72
2023/10/02 00:37:05;;;;;;;6.83;4.80;;;17.80;99.90;;;;;;5006947;28;20739;-70
2023/10/02 00:39:35;;;;;;;9.97;6.03;;;17.80;99.90;;;;;;5006206;28;20334;-70
2023/10/02 00:42:22;;;;;;;7.90;5.00;;;17.90;99.90;;;;;;5008056;28;20234;-69
2023/10/02 00:44:55;;;;;;;7.43;4.73;;;17.90;99.90;;;;;;5005271;28;20198;-69
2023/10/02 00:47:40;;;;;;;7.37;5.37;;;18.00;99.90;;;;;;5012234;28;20194;-70
2023/10/02 00:50:07;;;;;;;8.30;4.60;;;18.00;99.90;;;;;;5008026;28;20222;-68
2023/10/02 00:52:33;;;;;;;7.63;4.47;;;18.00;99.90;;;;;;5012393;28;20221;-69
2023/10/02 00:55:05;;;;;;;9.23;5.27;;;17.90;99.90;;;;;;5012115;28;20251;-70
2023/10/02 00:57:32;;;;;;;8.23;4.97;;;17.90;99.90;;;;;;5012199;28;20283;-68
2023/10/02 00:59:59;;;;;;;7.67;4.53;;;18.00;99.90;;;;;;5011723;28;20205;-68
2023/10/02 01:02:25;;;;;;;9.03;6.03;;;18.00;99.90;;;;;;5011993;28;20212;-67
2023/10/02 01:04:51;;;;;;;8.13;4.93;;;17.90;99.90;;;;;;5011988;28;20386;-67
2023/10/02 01:07:17;;;;;;;7.47;5.17;;;18.00;99.90;;;;;;5011597;28;20196;-68
2023/10/02 01:10:07;;;;;;;7.93;4.87;;;17.90;99.90;;;;;;5009612;28;20262;-69
2023/10/02 01:12:38;;;;;;;7.27;5.17;;;18.00;99.90;;;;;;5009748;28;20253;-68
2023/10/02 01:15:07;;;;;;;16.67;5.90;;;18.00;99.90;;;;;;5011190;28;20200;-68
2023/10/02 01:17:34;;;;;;;7.63;5.00;;;17.90;99.90;;;;;;5010410;28;20200;-69
2023/10/02 01:20:01;;;;;;;6.73;4.77;;;17.90;99.90;;;;;;5014106;28;20203;-69
2023/10/02 01:22:28;;;;;;;7.07;4.33;;;18.00;99.90;;;;;;5018415;28;20356;-68
2023/10/02 01:25:13;;;;;;;9.27;5.03;;;18.00;99.90;;;;;;5014394;28;20326;-69
2023/10/02 01:27:46;;;;;;;8.53;5.57;;;18.00;99.90;;;;;;5016858;28;20281;-65
2023/10/02 01:30:20;;;;;;;8.17;5.57;;;17.90;99.90;;;;;;5015891;28;21243;-65
2023/10/02 01:35:38;;;;;;;7.50;5.20;;;17.90;99.90;;;;;;5016183;28;20708;-65
2023/10/02 01:38:14;;;;;;;8.10;5.53;;;17.90;99.90;;;;;;5018288;28;20224;-74
2023/10/02 01:40:44;;;;;;;10.43;5.90;;;17.80;99.90;;;;;;5016977;28;20211;-62
2023/10/02 01:43:12;;;;;;;7.03;5.43;;;17.90;99.90;;;;;;5015975;28;20286;-72
2023/10/02 01:45:42;;;;;;;8.30;4.83;;;17.90;99.90;;;;;;5015911;28;20247;-71
2023/10/02 01:51:16;;;;;;;9.50;5.43;;;17.90;99.90;;;;;;5011504;28;20735;-70
2023/10/02 01:53:57;;;;;;;6.93;4.77;;;17.80;99.90;;;;;;5018271;28;20709;-71
2023/10/02 01:56:29;;;;;;;7.23;5.17;;;17.90;99.90;;;;;;5019874;28;20668;-72
2023/10/02 01:59:08;;;;;;;8.73;5.07;;;17.90;99.90;;;;;;5016355;28;20213;-72
2023/10/02 02:01:46;;;;;;;9.23;4.97;;;17.80;99.90;;;;;;5018106;28;20232;-64
2023/10/02 02:04:13;;;;;;;8.33;5.00;;;17.80;99.90;;;;;;5018055;28;20232;-64
2023/10/02 02:06:51;;;;;;;9.37;5.70;;;17.80;99.90;;;;;;5017853;28;20781;-64
2023/10/02 02:09:23;;;;;;;9.10;6.10;;;18.00;99.90;;;;;;5017793;28;20838;-63
2023/10/02 02:12:05;;;;;;;5.30;4.13;;;18.00;99.90;;;;;;5017481;28;20205;-64
2023/10/02 02:14:31;;;;;;;8.77;6.00;;;18.00;99.90;;;;;;5014891;28;20193;-64
2023/10/02 02:16:57;;;;;;;7.07;5.07;;;18.00;99.90;;;;;;5017975;28;20232;-64
2023/10/02 02:19:23;;;;;;;9.23;5.07;;;17.90;99.90;;;;;;5019135;28;20968;-64
2023/10/02 02:21:49;;;;;;;6.37;4.23;;;17.90;99.90;;;;;;5017600;28;20203;-64
2023/10/02 02:24:15;;;;;;;8.60;5.43;;;17.90;99.90;;;;;;5016268;28;20755;-64
2023/10/02 02:26:40;;;;;;;9.47;4.93;;;17.70;99.90;;;;;;5016646;28;20635;-64
2023/10/02 02:29:26;;;;;;;10.70;5.83;;;17.70;99.90;;;;;;5017878;28;20192;-64
2023/10/02 02:31:53;;;;;;;7.87;5.23;;;17.80;99.90;;;;;;5014600;28;21410;-64
2023/10/02 02:34:20;;;;;;;8.60;5.43;;;17.80;99.90;;;;;;5008554;28;20192;-64
2023/10/02 02:36:49;;;;;;;9.80;5.43;;;17.80;99.90;;;;;;5013037;28;20205;-64
2023/10/02 02:39:15;;;;;;;7.70;5.43;;;17.90;99.90;;;;;;5012003;28;20281;-63
2023/10/02 02:41:46;;;;;;;10.17;5.80;;;18.00;99.90;;;;;;5014465;28;20674;-64
2023/10/02 02:44:39;;;;;;;7.23;5.20;;;18.00;99.90;;;;;;5012920;28;20212;-64
2023/10/02 02:47:08;;;;;;;8.03;5.30;;;18.00;99.90;;;;;;5012700;28;20191;-74
2023/10/02 02:49:48;;;;;;;8.57;5.23;;;17.90;99.90;;;;;;5016642;28;20235;-76
2023/10/02 02:52:15;;;;;;;14.03;5.17;;;17.90;99.90;;;;;;5007170;28;20204;-78
2023/10/02 02:54:44;;;;;;;8.30;4.97;;;17.80;99.90;;;;;;5014438;28;20273;-79
2023/10/02 02:57:09;;;;;;;5.70;4.70;;;17.80;99.90;;;;;;5015285;28;20692;-79
2023/10/02 02:59:38;;;;;;;10.33;5.90;;;17.80;99.90;;;;;;5016222;28;20217;-78
2023/10/02 03:02:20;;;;;;;7.47;4.33;;;17.80;99.90;;;;;;5018686;28;20260;-80
2023/10/02 03:04:47;;;;;;;5.80;4.70;;;17.80;99.90;;;;;;5013716;28;20200;-72
2023/10/02 03:07:29;;;;;;;8.40;5.23;;;17.80;99.90;;;;;;5014198;28;20195;-72
2023/10/02 03:09:56;;;;;;;8.40;5.93;;;17.80;99.90;;;;;;5013941;28;20214;-72
2023/10/02 03:12:22;;;;;;;9.67;6.10;;;17.90;99.90;;;;;;5014164;28;20582;-71
2023/10/02 03:14:49;;;;;;;8.40;5.70;;;17.90;99.90;;;;;;5014906;28;20616;-72
2023/10/02 03:17:28;;;;;;;8.70;5.83;;;17.90;99.90;;;;;;5013754;28;20205;-71
2023/10/02 03:19:55;;;;;;;9.27;6.07;;;17.90;99.90;;;;;;5013312;28;20965;-72
2023/10/02 03:22:20;;;;;;;9.03;5.57;;;17.90;99.90;;;;;;5012077;28;20966;-72
2023/10/02 03:24:46;;;;;;;9.67;6.33;;;18.00;99.90;;;;;;5007262;28;20194;-72
2023/10/02 03:27:14;;;;;;;7.73;5.40;;;17.90;99.90;;;;;;5014805;28;20201;-73
2023/10/02 03:29:40;;;;;;;8.13;5.13;;;17.90;99.90;;;;;;5012691;28;20236;-69
2023/10/02 03:32:09;;;;;;;9.87;5.57;;;17.90;99.90;;;;;;5013193;28;20196;-69
2023/10/02 03:34:35;;;;;;;10.53;5.73;;;17.80;99.90;;;;;;5013394;28;20286;-66
2023/10/02 03:42:39;;;;;;;10.93;5.67;;;17.70;99.90;;;;;;4949917;28;20236;-64
2023/10/02 03:45:05;;;;;;;11.33;5.80;;;17.60;99.90;;;;;;4998158;28;20250;-64
2023/10/02 03:47:33;;;;;;;11.30;6.67;;;17.50;99.90;;;;;;5012917;28;20690;-69
2023/10/02 03:50:02;;;;;;;11.03;6.07;;;17.60;99.90;;;;;;5010027;28;20214;-63
2023/10/02 03:52:29;;;;;;;11.10;6.53;;;17.60;99.90;;;;;;5011381;28;20211;-61
2023/10/02 03:54:55;;;;;;;8.90;5.10;;;17.50;99.90;;;;;;5012972;28;20564;-63
2023/10/02 03:58:09;;;;;;;10.30;6.67;;;17.50;99.90;;;;;;5011366;28;20721;-65
2023/10/02 04:00:51;;;;;;;8.83;5.77;;;17.50;99.90;;;;;;5000068;28;21702;-72
2023/10/02 04:02:57;;;;;;;9.17;6.30;;;17.50;99.90;;;;;;5002236;28;20666;-69
2023/10/02 04:05:32;;;;;;;9.73;6.57;;;17.40;99.90;;;;;;5011600;28;20287;-69
2023/10/02 04:11:03;;;;;;;10.53;7.33;;;17.30;99.90;;;;;;4998140;28;20220;-70
2023/10/02 04:13:32;;;;;;;10.57;5.93;;;17.20;99.90;;;;;;5012787;28;20199;-69
2023/10/02 04:18:45;;;;;;;10.50;5.87;;;17.20;99.90;;;;;;5013266;28;20242;-68
2023/10/02 04:21:12;;;;;;;10.30;6.00;;;17.10;99.90;;;;;;5011186;28;20200;-68
2023/10/02 04:23:42;;;;;;;8.57;5.90;;;17.10;99.90;;;;;;5011006;28;20204;-68
2023/10/02 04:26:19;;;;;;;11.07;6.43;;;17.00;99.90;;;;;;5008484;28;20552;-68
2023/10/02 04:28:54;;;;;;;11.03;6.53;;;17.10;99.90;;;;;;5013379;28;20208;-68
2023/10/02 04:31:23;;;;;;;6.80;5.90;;;17.10;99.90;;;;;;5009156;28;20683;-67
2023/10/02 04:34:14;;;;;;;8.93;5.63;;;17.00;99.90;;;;;;5008336;28;20338;-67
2023/10/02 04:36:40;;;;;;;12.93;6.37;;;16.90;99.90;;;;;;5011761;28;20215;-67
2023/10/02 04:39:11;;;;;;;8.10;5.80;;;16.90;99.90;;;;;;5011117;28;20817;-68
2023/10/02 04:42:09;;;;;;;11.33;6.20;;;16.90;99.90;;;;;;5011921;28;20291;-68
2023/10/02 04:44:22;;;;;;;10.23;6.57;;;16.90;99.90;;;;;;5007672;28;20196;-68
2023/10/02 04:46:52;;;;;;;12.77;7.83;;;16.80;99.90;;;;;;5011759;28;20204;-68
2023/10/02 04:49:17;;;;;;;12.13;7.70;;;16.80;99.90;;;;;;5012306;28;20213;-68
2023/10/02 04:51:46;;;;;;;11.40;6.97;;;16.80;99.90;;;;;;5009500;28;20211;-68
2023/10/02 04:54:15;;;;;;;12.00;6.90;;;16.80;99.90;;;;;;5011799;28;20196;-68
2023/10/02 04:56:46;;;;;;;8.60;6.23;;;16.70;99.90;;;;;;5012365;28;20191;-69
2023/10/02 04:59:12;;;;;;;9.33;5.67;;;16.70;99.90;;;;;;5011545;28;20231;-69
2023/10/02 05:02:08;;;;;;;10.70;6.13;;;16.70;99.90;;;;;;5012012;28;20203;-69
2023/10/02 05:04:31;;;;;;;10.93;6.97;;;16.60;99.90;;;;;;5007985;28;20692;-69
2023/10/02 05:06:58;;;;;;;10.60;7.03;;;16.60;99.90;;;;;;5011726;28;20258;-70
2023/10/02 05:09:25;;;;;;;11.50;7.27;;;16.50;99.90;;;;;;5009903;28;20219;-68
2023/10/02 05:11:58;;;;;;;13.50;7.70;;;16.50;99.90;;;;;;5011216;28;20195;-68
2023/10/02 05:14:28;;;;;;;11.07;6.70;;;16.50;99.90;;;;;;5011881;28;20202;-70
2023/10/02 05:20:00;;;;;;;14.23;6.83;;;16.40;99.90;;;;;;5012661;28;20273;-69
2023/10/02 05:22:28;;;;;;;9.07;5.83;;;16.50;99.90;;;;;;5009420;28;20258;-70
2023/10/02 05:24:58;;;;;;;10.90;7.03;;;16.50;99.90;;;;;;5004353;28;21099;-81
2023/10/02 05:27:33;;;;;;;11.10;7.03;;;16.50;99.90;;;;;;5011863;28;20199;-81
2023/10/02 05:30:00;;;;;;;12.53;7.73;;;16.60;99.90;;;;;;5011341;28;20230;-75
2023/10/02 05:32:31;;;;;;;11.27;7.60;;;16.50;99.90;;;;;;5011581;28;21131;-66
2023/10/02 05:37:50;;;;;;;10.53;7.47;;;16.60;99.90;;;;;;5011785;28;20203;-65
2023/10/02 05:42:53;;;;;;;10.73;7.40;;;16.50;99.90;;;;;;5011632;28;20201;-67
2023/10/02 05:45:37;;;;;;;11.43;7.47;;;16.50;99.90;;;;;;5008196;28;20227;-67
2023/10/02 05:48:07;;;;;;;11.57;7.00;;;16.60;99.90;;;;;;5006172;28;20223;-67
2023/10/02 05:50:33;;;;;;;12.80;9.17;;;16.50;99.90;;;;;;5012979;28;20307;-67
2023/10/02 05:53:04;;;;;;;13.37;7.37;;;16.50;99.90;;;;;;5014462;28;20196;-66
2023/10/02 05:55:54;;;;;;;12.47;7.63;;;16.50;99.90;;;;;;5011898;28;20203;-65
2023/10/02 05:58:27;;;;;;;15.43;8.03;;;16.50;99.90;;;;;;5010961;28;20283;-67
2023/10/02 06:00:54;;;;;;;12.03;7.20;;;16.60;99.90;;;;;;5011572;28;21207;-67
2023/10/02 06:03:21;;;;;;;11.10;6.70;;;16.60;99.90;;;;;;5009946;28;20196;-63
2023/10/02 06:06:10;;;;;;;13.30;8.10;;;16.60;99.90;;;;;;5011236;28;20654;-72
2023/10/02 06:08:34;;;;;;;14.30;7.73;;;16.60;99.90;;;;;;5014258;28;20214;-65
2023/10/02 06:13:46;;;;;;;12.33;7.53;;;16.50;99.90;;;;;;5014130;28;20577;-64
2023/10/02 06:16:12;;;;;;;15.37;7.97;;;16.50;99.90;;;;;;5015016;28;20203;-64
2023/10/02 06:18:38;;;;;;;13.27;8.37;;;16.60;99.90;;;;;;5013968;28;20227;-65
2023/10/02 06:21:04;;;;;;;12.83;7.10;;;16.50;99.90;;;;;;5020183;28;20204;-64
2023/10/02 06:23:37;;;;;;;15.77;7.07;;;16.60;99.90;;;;;;5008701;28;20278;-65
2023/10/02 06:26:09;;;;;;;11.63;7.77;;;16.60;99.90;;;;;;5019177;28;20679;-70
2023/10/02 06:28:35;;;;;;;10.70;7.77;;;16.70;99.90;;;;;;5010379;28;20998;-71
2023/10/02 06:31:01;;;;;;;13.17;7.70;;;16.80;99.90;;;;;;5011550;28;21020;-65
2023/10/02 06:33:27;;;;;;;12.73;7.90;;;16.80;99.90;;;;;;5013397;28;20203;-61
2023/10/02 06:35:57;;;;;;;11.67;7.80;;;16.80;99.90;;;;;;5008267;28;20207;-62
2023/10/02 06:38:31;;;;;;;14.13;8.23;;;16.70;99.90;;;;;;5011866;28;20764;-63
2023/10/02 06:40:59;;;;;;;15.90;8.03;;;16.60;99.90;;;;;;5009913;28;20723;-66
2023/10/02 06:43:28;;;;;;;14.30;7.93;;;16.80;99.90;;;;;;5011073;28;20195;-64
2023/10/02 06:46:06;;;;;;;14.83;8.80;;;16.80;99.90;;;;;;5010641;28;20287;-66
2023/10/02 06:48:34;;;;;;;15.80;8.37;;;16.90;99.90;;;;;;5012597;28;20207;-67
2023/10/02 06:51:01;;;;;;;13.13;8.40;;;16.90;99.90;;;;;;5012625;28;20211;-66
2023/10/02 06:53:26;;;;;;;14.97;8.53;;;16.90;99.90;;;;;;5009943;28;20200;-68
2023/10/02 06:55:58;;;;;;;15.97;8.97;;;16.90;99.90;;;;;;5007776;28;21120;-72
2023/10/02 06:58:25;;;;;;;13.27;8.37;;;16.90;99.90;;;;;;5011218;28;20204;-79
2023/10/02 07:01:02;;;;;;;17.30;8.50;;;17.00;99.90;;;;;;5013034;28;20191;-75
2023/10/02 07:03:27;;;;;;;13.83;8.60;;;17.00;99.90;;;;;;5011378;28;20695;-78
2023/10/02 07:05:53;;;;;;;15.73;8.43;;;17.00;99.90;;;;;;5008123;28;20204;-72
2023/10/02 07:08:21;;;;;;;16.97;8.13;;;17.00;99.90;;;;;;5014729;28;20210;-62
2023/10/02 07:10:48;;;;;;;15.17;8.70;;;17.10;99.90;;;;;;5009362;28;20207;-61
2023/10/02 07:13:20;;;;;;;12.13;7.57;;;17.20;99.90;;;;;;5009125;28;20192;-60
2023/10/02 07:15:56;;;;;;;14.03;7.77;;;17.20;99.90;;;;;;5007990;28;20192;-68
2023/10/02 07:18:35;;;;;;;14.43;7.77;;;17.30;99.90;;;;;;5012252;28;20297;-64
2023/10/02 07:21:01;;;;;;;14.23;8.33;;;17.30;99.90;;;;;;5014402;28;20195;-66
2023/10/02 07:23:30;;;;;;;14.20;9.17;;;17.40;99.90;;;;;;5008746;28;20372;-65
2023/10/02 07:25:56;;;;;;;19.27;9.87;;;17.40;99.90;;;;;;5006815;28;20671;-65
2023/10/02 07:28:22;;;;;;;14.70;7.97;;;17.50;99.90;;;;;;5013626;28;20211;-65
2023/10/02 07:30:50;;;;;;;17.67;8.70;;;17.60;99.90;;;;;;5012322;28;20198;-65
2023/10/02 07:33:19;;;;;;;10.70;8.00;;;17.60;99.90;;;;;;5013875;28;20295;-66
2023/10/02 07:35:53;;;;;;;15.47;8.30;;;17.70;99.90;;;;;;5015417;28;20674;-66
2023/10/02 07:38:20;;;;;;;14.63;7.87;;;17.70;99.90;;;;;;5010836;28;20306;-66
2023/10/02 07:40:51;;;;;;;14.53;8.70;;;17.80;99.90;;;;;;5008653;28;20211;-65
2023/10/02 07:43:20;;;;;;;14.07;7.73;;;17.90;99.90;;;;;;5007961;28;20206;-65
2023/10/02 07:46:01;;;;;;;16.00;8.83;;;18.00;99.90;;;;;;5008375;28;20613;-65
2023/10/02 07:48:30;;;;;;;12.70;8.63;;;18.10;99.90;;;;;;5009262;28;20284;-66
2023/10/02 07:50:56;;;;;;;12.13;8.57;;;18.20;99.90;;;;;;5011728;28;20266;-65
2023/10/02 07:53:38;;;;;;;13.97;8.13;;;18.30;99.90;;;;;;5014977;28;20233;-65
2023/10/02 07:56:08;;;;;;;15.20;9.03;;;18.40;99.90;;;;;;5010022;28;20282;-66
2023/10/02 07:58:35;;;;;;;15.83;8.97;;;18.50;99.90;;;;;;5011535;28;20266;-67
2023/10/02 08:01:06;;;;;;;14.33;8.60;;;18.50;99.90;;;;;;5012791;28;20326;-66
2023/10/02 08:03:32;;;;;;;22.93;15.00;;;18.60;99.90;;;;;;5013037;28;20216;-63
2023/10/02 08:06:20;;;;;;;13.67;8.67;;;18.70;99.90;;;;;;5010450;28;20190;-64
2023/10/02 08:08:46;;;;;;;12.60;7.13;;;18.90;99.90;;;;;;5007927;28;20209;-64
2023/10/02 08:11:12;;;;;;;14.33;8.53;;;19.00;99.90;;;;;;5009153;28;21001;-66
2023/10/02 08:13:44;;;;;;;15.53;8.10;;;19.10;99.90;;;;;;5005045;28;20201;-65
2023/10/02 08:16:17;;;;;;;10.90;7.90;;;19.30;99.90;;;;;;5009262;28;20285;-66
2023/10/02 08:18:59;;;;;;;10.80;7.57;;;19.40;99.90;;;;;;5007389;28;20214;-72
2023/10/02 08:21:46;;;;;;;11.07;7.67;;;19.50;99.90;;;;;;5007102;28;20203;-68
2023/10/02 08:24:13;;;;;;;11.10;7.37;;;19.50;99.90;;;;;;5012261;28;20421;-66
2023/10/02 08:26:40;;;;;;;13.57;7.53;;;19.70;99.90;;;;;;5011168;28;20198;-63
2023/10/02 08:29:13;;;;;;;14.00;7.90;;;19.70;99.90;;;;;;5008405;28;20203;-74
2023/10/02 08:31:44;;;;;;;13.33;7.70;;;19.90;99.90;;;;;;5019066;28;20242;-65
2023/10/02 08:34:19;;;;;;;10.17;7.20;;;20.00;99.90;;;;;;5010765;28;20249;-66
2023/10/02 08:36:54;;;;;;;10.87;6.87;;;20.10;99.90;;;;;;5008412;28;20269;-68
2023/10/02 08:39:22;;;;;;;12.93;7.70;;;20.20;99.90;;;;;;5012659;28;20228;-68
2023/10/02 08:41:50;;;;;;;12.53;8.13;;;20.20;99.90;;;;;;5011356;28;20203;-69
2023/10/02 08:44:16;;;;;;;11.77;7.50;;;20.20;99.90;;;;;;5008731;28;20180;-71
2023/10/02 08:46:47;;;;;;;10.27;6.57;;;20.30;99.90;;;;;;5010372;28;20688;-67
2023/10/02 08:49:13;;;;;;;11.83;7.53;;;20.40;99.90;;;;;;5008389;28;20218;-66
2023/10/02 08:51:48;;;;;;;11.63;6.77;;;20.50;99.90;;;;;;5009949;28;20238;-65
2023/10/02 08:54:15;;;;;;;12.10;7.60;;;20.50;99.90;;;;;;5005210;28;20295;-66
2023/10/02 08:56:44;;;;;;;11.13;7.10;;;20.60;99.90;;;;;;5005799;28;20202;-71
2023/10/02 08:59:18;;;;;;;13.10;6.70;;;20.60;99.90;;;;;;5007975;28;20756;-66
2023/10/02 09:01:47;;;;;;;11.73;7.43;;;20.70;99.90;;;;;;5006848;28;20207;-65
2023/10/02 09:04:22;;;;;;;11.60;7.77;;;20.80;99.90;;;;;;5012177;28;20446;-65
2023/10/02 09:06:49;;;;;;;12.00;7.20;;;20.80;99.90;;;;;;5011145;28;20210;-65
2023/10/02 09:12:03;;;;;;;9.73;6.47;;;21.00;99.90;;;;;;5012687;28;20251;-65
2023/10/02 09:17:19;;;;;;;9.80;6.73;;;21.20;99.90;;;;;;5009800;28;20203;-63
2023/10/02 09:20:07;;;;;;;13.27;6.93;;;21.30;99.90;;;;;;5005702;28;20212;-71
2023/10/02 09:22:37;;;;;;;10.07;6.60;;;21.30;99.90;;;;;;5009277;28;20885;-64
2023/10/02 09:25:12;;;;;;;9.50;6.50;;;21.40;99.90;;;;;;5008003;28;20226;-64
2023/10/02 09:27:55;;;;;;;12.00;7.03;;;21.50;99.90;;;;;;5004964;28;20601;-64
2023/10/02 09:30:36;;;;;;;11.83;6.90;;;21.60;99.90;;;;;;5008888;28;20249;-64
2023/10/02 09:33:14;;;;;;;13.40;7.10;;;21.50;99.90;;;;;;5007593;28;20192;-74
2023/10/02 09:35:44;;;;;;;11.20;7.03;;;21.60;99.90;;;;;;5011085;28;20292;-75
2023/10/02 09:38:12;;;;;;;10.63;7.03;;;21.80;99.90;;;;;;5007641;28;20198;-66
2023/10/02 09:43:30;;;;;;;12.23;7.30;;;22.00;99.90;;;;;;5008392;28;20269;-65
2023/10/02 09:46:00;;;;;;;10.93;6.53;;;22.10;99.90;;;;;;5009584;28;20932;-65
2023/10/02 09:48:46;;;;;;;9.83;6.37;;;22.20;99.90;;;;;;5010132;28;20249;-64
2023/10/02 09:54:09;;;;;;;10.30;7.17;;;22.30;99.90;;;;;;5012543;28;20211;-66
2023/10/02 09:57:12;;;;;;;10.17;6.27;;;22.50;99.90;;;;;;5013359;28;20203;-65
2023/10/02 09:59:48;;;;;;;10.77;6.43;;;22.50;99.90;;;;;;5015011;28;20237;-65
2023/10/02 10:05:39;;;;;;;12.33;7.03;;;22.70;99.90;;;;;;5015531;28;20278;-69
2023/10/02 10:10:47;;;;;;;10.00;7.10;;;22.90;99.90;;;;;;5012561;28;20739;-64
2023/10/02 10:13:33;;;;;;;12.40;6.73;;;22.90;99.90;;;;;;5011078;28;20475;-65
2023/10/02 10:16:19;;;;;;;13.23;7.37;;;23.00;99.90;;;;;;5014967;28;20218;-68
2023/10/02 10:22:01;;;;;;;10.57;6.50;;;23.20;99.90;;;;;;5013927;28;20704;-66
2023/10/02 10:27:41;;;;;;;12.70;6.18;;;23.20;99.90;;;;;;5008968;28;20860;-64
2023/10/02 10:30:24;;;;;;;10.57;6.67;;;23.40;99.90;;;;;;5018461;28;20215;-64
2023/10/02 10:35:48;;;;;;;8.85;5.60;;;23.80;99.90;;;;;;5014047;28;20637;-65
2023/10/02 10:38:26;;;;;;;10.23;6.30;;;23.90;99.90;;;;;;5013367;28;20959;-65
2023/10/02 10:41:01;;;;;;;7.72;5.03;;;23.80;99.90;;;;;;5010746;28;20217;-65
2023/10/02 10:43:44;;;;;;;8.20;5.03;;;23.80;99.90;;;;;;5011956;28;20989;-67
2023/10/02 10:46:13;;;;;;;10.75;6.40;;;24.00;99.90;;;;;;5008567;28;20203;-69
2023/10/02 10:48:40;;;;;;;10.70;6.50;;;24.10;99.90;;;;;;5013404;28;20298;-66
2023/10/02 10:51:20;;;;;;;11.23;6.55;;;24.20;99.90;;;;;;5014850;28;20227;-66
2023/10/02 10:53:47;;;;;;;8.55;6.45;;;24.20;99.90;;;;;;5011574;28;20202;-66
2023/10/02 10:56:18;;;;;;;9.55;5.57;;;24.30;99.90;;;;;;5043588;22;20535;-68
2023/10/02 10:58:51;;;;;;;8.80;5.20;;;24.30;99.90;;;;;;5030241;28;20222;-66
2023/10/02 11:01:16;;;;;;;6.38;5.43;;;24.20;99.90;;;;;;5028224;28;20223;-66
2023/10/02 11:03:49;;;;;;;8.23;5.68;;;24.30;99.90;;;;;;5032378;28;20250;-67
2023/10/02 11:06:16;;;;;;;9.95;5.82;;;24.40;99.90;;;;;;5032811;28;20242;-66
2023/10/02 11:08:44;;;;;;;9.00;5.97;;;24.40;99.90;;;;;;5031006;28;21044;-66
2023/10/02 11:11:18;;;;;;;9.38;5.53;;;24.40;99.90;;;;;;5027979;28;20191;-66
2023/10/02 11:13:55;;;;;;;7.85;4.97;;;24.50;99.90;;;;;;5032499;28;20213;-66
2023/10/02 11:16:32;;;;;;;6.53;5.03;;;24.70;99.90;;;;;;5032706;28;20201;-64
2023/10/02 11:19:21;;;;;;;8.60;5.68;;;24.80;99.90;;;;;;5033761;28;20280;-65
2023/10/02 11:22:15;;;;;;;8.20;5.45;;;25.00;99.90;;;;;;5031705;28;20245;-65
2023/10/02 11:24:55;;;;;;;11.57;5.93;;;25.10;99.90;;;;;;5029338;28;20675;-66
2023/10/02 11:27:21;;;;;;;8.15;5.65;;;25.30;99.90;;;;;;5029478;28;20717;-65
2023/10/02 11:30:03;;;;;;;8.30;5.57;;;25.50;99.90;;;;;;5031863;28;20203;-65
2023/10/02 11:32:50;;;;;;;8.95;6.75;;;25.80;99.90;;;;;;5034143;28;20270;-66
2023/10/02 11:35:16;;;;;;;8.32;6.03;;;26.00;99.90;;;;;;5030793;28;20198;-65
2023/10/02 11:37:46;;;;;;;8.88;5.78;;;26.20;99.60;;;;;;5028003;28;20925;-66
2023/10/02 11:40:13;;;;;;;8.88;5.55;;;26.10;99.90;;;;;;5023959;28;20219;-64
2023/10/02 11:42:38;;;;;;;8.63;6.25;;;26.30;99.40;;;;;;5025573;28;20212;-66
2023/10/02 11:45:05;;;;;;;9.90;5.70;;;26.20;98.70;;;;;;5024920;28;20200;-66
2023/10/02 11:47:30;;;;;;;12.18;7.07;;;26.30;98.80;;;;;;5032015;28;20796;-66
2023/10/02 11:49:57;;;;;;;11.63;6.70;;;26.40;98.90;;;;;;5033255;28;20198;-66
2023/10/02 11:52:22;;;;;;;11.15;7.57;;;26.70;97.40;;;;;;5032930;28;20192;-66
2023/10/02 11:54:48;;;;;;;10.05;7.03;;;26.90;97.20;;;;;;5027369;28;20205;-66
2023/10/02 11:57:14;;;;;;;9.70;6.90;;;27.10;96.40;;;;;;5026362;28;20225;-66
2023/10/02 11:59:42;;;;;;;10.68;6.85;;;27.10;96.40;;;;;;5025135;28;20214;-66
2023/10/02 12:02:11;;;;;;;10.20;7.85;;;27.20;95.70;;;;;;5030748;28;20288;-66
2023/10/02 12:04:40;;;;;;;10.15;6.95;;;26.90;97.10;;;;;;5027163;28;20730;-65
2023/10/02 12:07:07;;;;;;;9.75;6.82;;;26.40;98.00;;;;;;5033196;28;20196;-65
2023/10/02 12:09:33;;;;;;;9.40;6.88;;;26.90;96.20;;;;;;5033061;28;20739;-66
2023/10/02 12:11:59;;;;;;;11.20;6.82;;;27.10;95.60;;;;;;5024514;28;20204;-66
2023/10/02 12:14:26;;;;;;;12.88;7.20;;;27.30;94.90;;;;;;5032914;28;20225;-65
2023/10/02 12:16:54;;;;;;;10.23;7.05;;;27.10;95.10;;;;;;5034944;28;20280;-66
2023/10/02 12:19:21;;;;;;;10.68;7.47;;;27.10;95.20;;;;;;5031024;28;20212;-66
2023/10/02 12:21:47;;;;;;;14.77;7.65;;;27.00;95.30;;;;;;5029083;28;20202;-66
2023/10/02 12:24:14;;;;;;;10.30;7.25;;;27.20;94.70;;;;;;5028100;28;20202;-66
2023/10/02 12:26:40;;;;;;;13.05;7.50;;;26.80;95.10;;;;;;5058705;22;20894;-66
2023/10/02 12:29:06;;;;;;;12.27;7.53;;;27.10;94.50;;;;;;5030697;28;20290;-66
2023/10/02 12:31:36;;;;;;;9.05;7.00;;;27.40;93.80;;;;;;5032168;28;20333;-65
2023/10/02 12:34:03;;;;;;;10.65;6.68;;;27.40;94.10;;;;;;5027781;28;20198;-66
2023/10/02 12:36:28;;;;;;;9.68;7.22;;;27.40;94.20;;;;;;5030554;28;20229;-66
2023/10/02 12:38:54;;;;;;;12.32;7.63;;;27.50;93.80;;;;;;5025212;28;20230;-66
2023/10/02 12:41:21;;;;;;;9.70;6.22;;;27.60;93.70;;;;;;5029155;28;20214;-65
2023/10/02 12:43:55;;;;;;;10.32;7.25;;;27.70;93.20;;;;;;5021923;28;20535;-65
2023/10/02 12:46:22;;;;;;;12.23;7.72;;;27.70;92.80;;;;;;5029363;28;20247;-66
2023/10/02 12:48:48;;;;;;;9.95;7.05;;;27.40;93.20;;;;;;5029127;28;20218;-67
2023/10/02 12:51:17;;;;;;;9.85;7.07;;;27.20;93.70;;;;;;5029648;28;20210;-67
2023/10/02 12:53:49;;;;;;;10.15;7.28;;;27.00;94.50;;;;;;5029191;28;20206;-67
2023/10/02 12:56:22;;;;;;;9.02;6.65;;;26.90;94.20;;;;;;5031793;28;20863;-67
2023/10/02 12:58:49;;;;;;;9.38;6.85;;;26.80;94.60;;;;;;5031473;28;20232;-67
2023/10/02 13:01:19;;;;;;;10.70;7.18;;;27.00;94.30;;;;;;5030325;28;20206;-67
2023/10/02 13:03:45;;;;;;;10.18;6.78;;;27.30;93.90;;;;;;5032006;28;20199;-67
2023/10/02 13:06:12;;;;;;;11.27;7.82;;;27.10;95.10;;;;;;5031752;28;20206;-67
2023/10/02 13:08:43;;;;;;;8.27;6.30;;;27.20;94.40;;;;;;5030749;28;20210;-63
2023/10/02 13:11:18;;;;;;;11.32;9.75;;;27.30;94.10;;;;;;5030672;28;20206;-67
2023/10/02 13:13:46;;;;;;;10.27;7.03;;;27.00;94.70;;;;;;5030718;28;20256;-67
2023/10/02 13:16:15;;;;;;;10.27;7.20;;;27.40;93.80;;;;;;5032342;28;20190;-67
2023/10/02 13:18:43;;;;;;;11.70;6.22;;;27.60;93.20;;;;;;5030555;28;20325;-67
2023/10/02 13:21:10;;;;;;;7.80;6.65;;;27.80;93.00;;;;;;5030654;28;20191;-66
2023/10/02 13:23:37;;;;;;;12.75;7.32;;;27.60;94.40;;;;;;5030359;28;20198;-66
2023/10/02 13:26:08;;;;;;;9.52;6.20;;;27.10;94.00;;;;;;5033306;28;20206;-65
2023/10/02 13:28:34;;;;;;;12.55;7.55;;;26.80;94.50;;;;;;5027082;28;20243;-66
2023/10/02 13:31:13;;;;;;;11.02;6.60;;;26.70;94.90;;;;;;5033649;28;20301;-66
2023/10/02 13:33:52;;;;;;;11.98;6.80;;;27.10;94.00;;;;;;5029608;28;20633;-65
2023/10/02 13:36:22;;;;;;;7.20;5.55;;;27.20;93.50;;;;;;5031986;28;20194;-66
2023/10/02 13:38:54;;;;;;;10.98;7.38;;;27.40;93.50;;;;;;5029925;28;20225;-66
2023/10/02 13:41:20;;;;;;;9.25;5.82;;;27.50;93.60;;;;;;5031802;28;20277;-66
2023/10/02 13:43:48;;;;;;;10.07;7.88;;;27.60;93.20;;;;;;5026076;28;20622;-66
2023/10/02 13:46:15;;;;;;;10.15;6.85;;;27.70;93.20;;;;;;5031672;28;20208;-66
2023/10/02 13:48:41;;;;;;;9.07;6.72;;;27.90;92.70;;;;;;5030703;28;20198;-66
2023/10/02 13:51:07;;;;;;;8.05;5.47;;;27.90;93.20;;;;;;5033697;28;20250;-66
2023/10/02 13:53:34;;;;;;;8.63;6.00;;;27.90;92.40;;;;;;5020778;28;20203;-67
2023/10/02 13:56:08;;;;;;;9.52;5.18;;;27.90;92.00;;;;;;5031581;28;20298;-67